createdAt,value
2022-10-11T00:00:14.973Z,100888.53
2022-10-11T00:02:37.305Z,100882.81
2022-10-11T00:04:59.710Z,100884.78
2022-10-11T00:07:22.218Z,100889.19
2022-10-11T00:09:44.848Z,100894.22
2022-10-11T00:12:07.286Z,100891.78
2022-10-11T00:14:29.678Z,100895.34
2022-10-11T00:16:52.930Z,100889.47
2022-10-11T00:19:15.968Z,100896.63
2022-10-11T00:21:38.442Z,100907.34
2022-10-11T00:24:00.947Z,100901.34
2022-10-11T00:26:23.313Z,100902.81
2022-10-11T00:28:45.786Z,100898.09
2022-10-11T00:31:13.857Z,100904.28
2022-10-11T00:33:36.401Z,100907.69
2022-10-11T00:36:00.619Z,100907.50
2022-10-11T00:38:23.091Z,100891.72
2022-10-11T00:40:45.743Z,100889.75
2022-10-11T00:43:20.394Z,100897.09
2022-10-11T00:45:58.097Z,100906.19
2022-10-11T00:48:37.795Z,100910.75
2022-10-11T00:51:01.686Z,100909.09
2022-10-11T00:53:24.308Z,100907.13
2022-10-11T00:55:59.824Z,100916.56
2022-10-11T00:58:22.532Z,100914.44
2022-10-11T01:00:45.111Z,100914.78
2022-10-11T01:03:07.456Z,100920.31
2022-10-11T01:05:30.500Z,100926.13
2022-10-11T01:07:53.148Z,100919.94
2022-10-11T01:10:15.686Z,100924.66
2022-10-11T01:12:38.097Z,100931.81
2022-10-11T01:15:17.405Z,100927.09
2022-10-11T01:18:08.895Z,100925.47
2022-10-11T01:20:54.575Z,100926.56
2022-10-11T01:24:13.341Z,100934.88
2022-10-11T01:27:06.355Z,100937.16
2022-10-11T01:29:56.546Z,100947.59
2022-10-11T01:32:45.545Z,100937.16
2022-10-11T01:35:27.743Z,100945.44
2022-10-11T01:38:11.778Z,100950.16
2022-10-11T01:40:47.309Z,100952.59
2022-10-11T01:43:09.749Z,100940.72
2022-10-11T01:45:33.004Z,100958.13
2022-10-11T01:48:21.711Z,100948.44
2022-10-11T01:50:46.462Z,100957.84
2022-10-11T01:53:23.073Z,100961.44
2022-10-11T01:56:19.090Z,100958.13
2022-10-11T01:59:14.278Z,100965.03
2022-10-11T02:01:57.985Z,100966.63
2022-10-11T02:04:23.057Z,100964.69
2022-10-11T02:06:57.991Z,100968.59
2022-10-11T02:09:49.720Z,100964.69
2022-10-11T02:12:13.444Z,100966.63
2022-10-11T02:14:44.095Z,100981.63
2022-10-11T02:17:17.674Z,100960.88
2022-10-11T02:19:43.170Z,100970.66
2022-10-11T02:22:29.582Z,100972.59
2022-10-11T02:24:54.009Z,100972.91
2022-10-11T02:27:17.666Z,100970.47
2022-10-11T02:29:41.024Z,100984.00
2022-10-11T02:32:03.783Z,100974.03
2022-10-11T02:34:34.034Z,100980.69
2022-10-11T02:37:17.057Z,100986.41
2022-10-11T02:40:09.006Z,101000.25
2022-10-11T02:42:37.174Z,101001.41
2022-10-11T02:45:19.924Z,100993.09
2022-10-11T02:47:42.264Z,101000.59
2022-10-11T02:50:05.217Z,100995.88
2022-10-11T02:52:27.808Z,101008.56
2022-10-11T02:54:50.200Z,101011.84
2022-10-11T02:57:12.832Z,101008.47
2022-10-11T02:59:35.173Z,101005.06
2022-10-11T03:01:57.593Z,101029.00
2022-10-11T03:04:20.064Z,101025.59
2022-10-11T03:06:42.399Z,101027.44
2022-10-11T03:09:04.821Z,101032.97
2022-10-11T03:11:27.192Z,101032.97
2022-10-11T03:13:49.600Z,101041.75
2022-10-11T03:16:12.453Z,101051.69
2022-10-11T03:18:35.276Z,101042.75
2022-10-11T03:20:57.678Z,101046.66
2022-10-11T03:23:20.047Z,101044.88
2022-10-11T03:25:42.395Z,101055.66
2022-10-11T03:28:05.140Z,101052.56
2022-10-11T03:30:27.511Z,101057.59
2022-10-11T03:32:49.829Z,101058.91
2022-10-11T03:35:12.154Z,101055.31
2022-10-11T03:37:34.607Z,101058.09
2022-10-11T03:39:56.953Z,101060.56
2022-10-11T03:42:19.316Z,101072.75
2022-10-11T03:44:42.279Z,101071.94
2022-10-11T03:47:05.627Z,101079.41
2022-10-11T03:49:27.871Z,101079.75
2022-10-11T03:51:50.288Z,101085.56
2022-10-11T03:54:12.666Z,101090.47
2022-10-11T03:56:35.054Z,101087.22
2022-10-11T03:58:57.451Z,101094.69
2022-10-11T04:01:20.210Z,101104.13
2022-10-11T04:03:42.911Z,101101.69
2022-10-11T04:06:06.161Z,101118.59
2022-10-11T04:08:28.797Z,101114.53
2022-10-11T04:10:51.816Z,101121.81
2022-10-11T04:13:14.197Z,101109.22
2022-10-11T04:15:37.751Z,101115.94
2022-10-11T04:18:00.227Z,101107.50
2022-10-11T04:20:22.597Z,101119.53
2022-10-11T04:22:45.022Z,101115.13
2022-10-11T04:25:08.566Z,101122.09
2022-10-11T04:27:30.917Z,101126.13
2022-10-11T04:29:53.286Z,101131.75
2022-10-11T04:32:15.645Z,101136.78
2022-10-11T04:34:17.774Z,101125.88
2022-10-11T04:36:19.777Z,101140.63
2022-10-11T04:38:22.455Z,101140.41
2022-10-11T04:40:24.403Z,101144.97
2022-10-11T04:42:26.380Z,101143.59
2022-10-11T04:44:28.388Z,101144.97
2022-10-11T04:46:30.531Z,101153.03
2022-10-11T04:48:32.636Z,101146.69
2022-10-11T04:50:34.904Z,101151.81
2022-10-11T04:52:36.933Z,101151.00
2022-10-11T04:54:38.959Z,101158.28
2022-10-11T04:56:41.147Z,101154.72
2022-10-11T04:58:43.226Z,101153.69
2022-10-11T05:00:45.227Z,101159.22
2022-10-11T05:02:47.241Z,101173.66
2022-10-11T05:04:49.342Z,101169.44
2022-10-11T05:06:51.352Z,101174.78
2022-10-11T05:08:53.399Z,101179.28
2022-10-11T05:11:02.454Z,101193.19
2022-10-11T05:13:04.947Z,101194.84
2022-10-11T05:15:08.156Z,101198.72
2022-10-11T05:17:10.183Z,101199.66
2022-10-11T05:19:12.479Z,101206.59
2022-10-11T05:21:25.061Z,101210.72
2022-10-11T05:23:28.843Z,101213.88
2022-10-11T05:25:30.845Z,101215.50
2022-10-11T05:27:32.873Z,101215.81
2022-10-11T05:29:34.882Z,101221.97
2022-10-11T05:31:36.888Z,101219.00
2022-10-11T05:33:39.077Z,101230.13
2022-10-11T05:35:41.114Z,101225.41
2022-10-11T05:37:43.165Z,101228.78
2022-10-11T05:39:45.207Z,101240.66
2022-10-11T05:41:47.244Z,101236.25
2022-10-11T05:43:49.338Z,101242.31
2022-10-11T05:45:51.340Z,101250.88
2022-10-11T05:47:53.402Z,101243.44
2022-10-11T05:49:55.570Z,101263.59
2022-10-11T05:51:57.643Z,101253.38
2022-10-11T05:54:00.064Z,101262.69
2022-10-11T05:56:02.470Z,101279.16
2022-10-11T05:58:04.892Z,101278.22
2022-10-11T06:00:07.686Z,101283.47
2022-10-11T06:02:12.934Z,101283.25
2022-10-11T06:04:16.575Z,101294.22
2022-10-11T06:06:18.921Z,101297.16
2022-10-11T06:08:20.914Z,101296.56
2022-10-11T06:10:22.939Z,101292.69
2022-10-11T06:12:24.948Z,101293.09
2022-10-11T06:14:27.018Z,101306.94
2022-10-11T06:16:29.089Z,101308.16
2022-10-11T06:18:31.872Z,101309.72
2022-10-11T06:20:33.864Z,101316.03
2022-10-11T06:22:35.899Z,101328.94
2022-10-11T06:24:37.961Z,101336.84
2022-10-11T06:26:39.995Z,101336.44
2022-10-11T06:28:42.089Z,101345.44
2022-10-11T06:30:44.189Z,101340.41
2022-10-11T06:32:46.190Z,101342.28
2022-10-11T06:34:48.261Z,101351.28
2022-10-11T06:36:50.317Z,101349.84
2022-10-11T06:38:53.824Z,101354.75
2022-10-11T06:40:55.832Z,101355.09
2022-10-11T06:42:57.823Z,101362.97
2022-10-11T06:44:59.847Z,101372.59
2022-10-11T06:47:01.905Z,101357.25
2022-10-11T06:49:03.986Z,101371.31
2022-10-11T06:51:06.155Z,101380.72
2022-10-11T06:53:08.418Z,101369.66
2022-10-11T06:55:10.467Z,101381.94
2022-10-11T06:57:12.680Z,101403.16
2022-10-11T06:59:15.177Z,101389.31
2022-10-11T07:01:19.155Z,101389.53
2022-10-11T07:03:21.236Z,101399.78
2022-10-11T07:05:23.263Z,101389.03
2022-10-11T07:07:25.302Z,101381.81
2022-10-11T07:09:27.387Z,101385.09
2022-10-11T07:11:29.551Z,101402.13
2022-10-11T07:13:31.713Z,101396.94
2022-10-11T07:15:38.340Z,101406.09
2022-10-11T07:17:40.469Z,101397.16
2022-10-11T07:19:42.515Z,101397.28
2022-10-11T07:21:44.564Z,101414.19
2022-10-11T07:23:46.558Z,101401.69
2022-10-11T07:25:48.786Z,101419.00
2022-10-11T07:27:50.824Z,101411.31
2022-10-11T07:29:53.018Z,101420.00
2022-10-11T07:31:55.049Z,101418.88
2022-10-11T07:33:57.078Z,101433.25
2022-10-11T07:35:59.286Z,101430.38
2022-10-11T07:38:01.333Z,101446.13
2022-10-11T07:40:03.855Z,101443.66
2022-10-11T07:42:06.803Z,101446.84
2022-10-11T07:44:08.796Z,101449.19
2022-10-11T07:46:11.407Z,101450.41
2022-10-11T07:48:13.439Z,101446.59
2022-10-11T07:50:15.566Z,101450.91
2022-10-11T07:52:17.618Z,101463.25
2022-10-11T07:54:19.688Z,101467.72
2022-10-11T07:56:28.727Z,101475.59
2022-10-11T07:58:31.300Z,101461.81
2022-10-11T08:00:33.310Z,101485.53
2022-10-11T08:02:35.351Z,101471.06
2022-10-11T08:04:37.467Z,101474.41
2022-10-11T08:06:39.563Z,101476.78
2022-10-11T08:08:41.719Z,101484.84
2022-10-11T08:10:43.881Z,101484.72
2022-10-11T08:12:48.273Z,101487.00
2022-10-11T08:14:50.362Z,101489.28
2022-10-11T08:16:52.487Z,101491.06
2022-10-11T08:18:57.075Z,101500.66
2022-10-11T08:20:59.359Z,101493.81
2022-10-11T08:23:01.354Z,101490.66
2022-10-11T08:25:04.007Z,101518.91
2022-10-11T08:27:06.014Z,101505.97
2022-10-11T08:29:08.229Z,101495.66
2022-10-11T08:31:13.334Z,101506.88
2022-10-11T08:33:16.388Z,101518.75
2022-10-11T08:35:18.449Z,101506.44
2022-10-11T08:37:20.498Z,101506.28
2022-10-11T08:39:22.547Z,101507.06
2022-10-11T08:41:30.434Z,101516.38
2022-10-11T08:43:44.189Z,101494.00
2022-10-11T08:45:50.368Z,101500.84
2022-10-11T08:47:52.385Z,101515.78
2022-10-11T08:49:54.652Z,101516.81
2022-10-11T08:52:04.549Z,101533.22
2022-10-11T08:54:37.282Z,101535.47
2022-10-11T08:56:40.103Z,101533.72
2022-10-11T08:58:59.005Z,101531.56
2022-10-11T09:01:01.081Z,101528.75
2022-10-11T09:03:36.644Z,101534.97
2022-10-11T09:06:22.146Z,101528.75
2022-10-11T09:08:51.945Z,101540.66
2022-10-11T09:11:00.191Z,101524.56
2022-10-11T09:13:12.489Z,101537.84
2022-10-11T09:15:38.634Z,101535.19
2022-10-11T09:18:04.542Z,101522.69
2022-10-11T09:20:27.437Z,101533.00
2022-10-11T09:23:16.796Z,101528.22
2022-10-11T09:25:46.928Z,101537.69
2022-10-11T09:28:10.853Z,101537.03
2022-10-11T09:30:18.001Z,101538.03
2022-10-11T09:32:23.457Z,101541.34
2022-10-11T09:34:33.690Z,101551.81
2022-10-11T09:37:27.591Z,101540.53
2022-10-11T09:39:41.543Z,101559.47
2022-10-11T09:41:52.262Z,101575.44
2022-10-11T09:43:54.318Z,101553.75
2022-10-11T09:45:56.324Z,101544.31
2022-10-11T09:47:58.442Z,101548.06
2022-10-11T09:50:15.393Z,101538.66
2022-10-11T09:52:19.854Z,101549.41
2022-10-11T09:54:37.872Z,101576.66
2022-10-11T09:56:44.029Z,101567.03
2022-10-11T09:58:46.084Z,101564.56
2022-10-11T10:00:56.648Z,101562.53
2022-10-11T10:03:00.999Z,101564.78
2022-10-11T10:05:17.114Z,101563.19
2022-10-11T10:07:19.316Z,101565.72
2022-10-11T10:09:30.239Z,101569.72
2022-10-11T10:11:36.875Z,101570.28
2022-10-11T10:13:59.774Z,101566.59
2022-10-11T10:16:04.198Z,101567.72
2022-10-11T10:18:06.630Z,101567.34
2022-10-11T10:20:20.187Z,101571.09
2022-10-11T10:22:31.365Z,101585.38
2022-10-11T10:24:33.288Z,101573.72
2022-10-11T10:26:35.457Z,101578.41
2022-10-11T10:28:37.572Z,101586.13
2022-10-11T10:30:39.679Z,101576.84
2022-10-11T10:33:02.144Z,101578.28
2022-10-11T10:35:42.336Z,101587.28
2022-10-11T10:38:16.698Z,101588.69
2022-10-11T10:40:25.626Z,101591.03
2022-10-11T10:42:28.874Z,101586.41
2022-10-11T10:44:30.969Z,101590.28
2022-10-11T10:47:03.252Z,101593.97
2022-10-11T10:49:48.770Z,101604.13
2022-10-11T10:51:45.076Z,101594.81
2022-10-11T10:53:56.934Z,101592.97
2022-10-11T10:56:23.970Z,101598.13
2022-10-11T10:59:05.543Z,101579.44
2022-10-11T11:01:29.375Z,101594.00
2022-10-11T11:04:05.021Z,101601.84
2022-10-11T11:06:10.319Z,101602.59
2022-10-11T11:08:56.404Z,101605.69
2022-10-11T11:11:46.475Z,101603.72
2022-10-11T11:14:18.798Z,101604.66
2022-10-11T11:16:32.949Z,101602.59
2022-10-11T11:19:23.507Z,101617.28
2022-10-11T11:22:03.357Z,101612.03
2022-10-11T11:24:32.797Z,101616.66
2022-10-11T11:27:03.466Z,101617.69
2022-10-11T11:29:35.850Z,101605.16
2022-10-11T11:32:13.425Z,101620.91
2022-10-11T11:34:58.658Z,101619.91
2022-10-11T11:37:06.714Z,101619.00
2022-10-11T11:39:20.903Z,101616.91
2022-10-11T11:41:38.625Z,101615.59
2022-10-11T11:43:58.522Z,101606.31
2022-10-11T11:46:09.722Z,101614.25
2022-10-11T11:48:24.715Z,101622.63
2022-10-11T11:50:28.611Z,101609.00
2022-10-11T11:52:44.246Z,101613.75
2022-10-11T11:55:13.244Z,101609.41
2022-10-11T11:57:48.917Z,101609.78
2022-10-11T12:00:15.727Z,101611.13
2022-10-11T12:02:44.623Z,101610.44
2022-10-11T12:04:49.725Z,101607.00
2022-10-11T12:07:17.548Z,101606.28
2022-10-11T12:09:21.641Z,101608.69
2022-10-11T12:11:34.543Z,101606.41
2022-10-11T12:13:38.309Z,101610.03
2022-10-11T12:15:40.350Z,101606.38
2022-10-11T12:17:57.589Z,101611.31
2022-10-11T12:20:40.977Z,101612.00
2022-10-11T12:23:30.409Z,101598.25
2022-10-11T12:25:40.481Z,101603.28
2022-10-11T12:28:37.793Z,101610.69
2022-10-11T12:30:48.254Z,101622.31
2022-10-11T12:32:51.089Z,101618.69
2022-10-11T12:34:53.105Z,101606.44
2022-10-11T12:36:55.190Z,101610.22
2022-10-11T12:39:19.289Z,101617.56
2022-10-11T12:41:53.699Z,101610.47
2022-10-11T12:44:26.404Z,101612.38
2022-10-11T12:46:28.392Z,101617.31
2022-10-11T12:48:49.618Z,101598.00
2022-10-11T12:51:09.640Z,101601.69
2022-10-11T12:53:30.499Z,101616.41
2022-10-11T12:55:58.315Z,101613.59
2022-10-11T12:58:38.201Z,101613.84
2022-10-11T13:00:40.112Z,101609.97
2022-10-11T13:02:42.716Z,101621.66
2022-10-11T13:04:44.725Z,101634.47
2022-10-11T13:07:03.198Z,101619.97
2022-10-11T13:09:39.961Z,101619.78
2022-10-11T13:12:07.353Z,101619.47
2022-10-11T13:14:28.067Z,101625.97
2022-10-11T13:17:02.429Z,101611.31
2022-10-11T13:19:04.440Z,101613.19
2022-10-11T13:21:36.361Z,101621.09
2022-10-11T13:23:39.047Z,101618.78
2022-10-11T13:25:40.937Z,101608.59
2022-10-11T13:27:42.935Z,101622.53
2022-10-11T13:29:45.536Z,101615.13
2022-10-11T13:31:47.674Z,101617.00
2022-10-11T13:33:49.991Z,101614.94
2022-10-11T13:35:52.592Z,101628.75
2022-10-11T13:37:54.496Z,101619.19
2022-10-11T13:39:57.033Z,101619.00
2022-10-11T13:41:59.256Z,101616.56
2022-10-11T13:44:01.483Z,101614.97
2022-10-11T13:46:06.588Z,101644.00
2022-10-11T13:48:14.824Z,101622.47
2022-10-11T13:50:20.004Z,101624.22
2022-10-11T13:52:24.182Z,101619.88
2022-10-11T13:54:26.359Z,101619.72
2022-10-11T13:56:30.016Z,101625.22
2022-10-11T13:58:45.353Z,101623.41
2022-10-11T14:01:27.922Z,101631.72
2022-10-11T14:03:45.976Z,101622.47
2022-10-11T14:05:58.663Z,101627.66
2022-10-11T14:08:04.479Z,101606.94
2022-10-11T14:10:06.906Z,101624.94
2022-10-11T14:12:38.235Z,101633.00
2022-10-11T14:14:41.827Z,101640.16
2022-10-11T14:16:57.477Z,101618.84
2022-10-11T14:18:59.360Z,101626.81
2022-10-11T14:21:19.486Z,101626.75
2022-10-11T14:23:21.562Z,101626.38
2022-10-11T14:25:23.548Z,101629.66
2022-10-11T14:27:25.563Z,101632.31
2022-10-11T14:29:36.822Z,101627.44
2022-10-11T14:31:42.105Z,101620.44
2022-10-11T14:33:44.274Z,101629.66
2022-10-11T14:35:46.304Z,101638.81
2022-10-11T14:37:48.338Z,101618.38
2022-10-11T14:39:51.202Z,101637.31
2022-10-11T14:41:53.630Z,101638.19
2022-10-11T14:43:57.860Z,101626.22
2022-10-11T14:45:59.880Z,101631.31
2022-10-11T14:48:01.877Z,101626.16
2022-10-11T14:50:58.561Z,101629.84
2022-10-11T14:53:00.874Z,101623.97
2022-10-11T14:55:03.021Z,101642.56
2022-10-11T14:57:05.197Z,101629.78
2022-10-11T14:59:07.311Z,101637.34
2022-10-11T15:01:14.096Z,101645.75
2022-10-11T15:03:16.139Z,101636.47
2022-10-11T15:05:18.409Z,101640.88
2022-10-11T15:07:20.413Z,101635.00
2022-10-11T15:09:23.273Z,101640.38
2022-10-11T15:11:25.469Z,101647.31
2022-10-11T15:13:27.505Z,101642.34
2022-10-11T15:15:30.784Z,101640.91
2022-10-11T15:17:32.805Z,101645.34
2022-10-11T15:19:34.800Z,101652.59
2022-10-11T15:21:36.838Z,101637.34
2022-10-11T15:23:39.003Z,101642.75
2022-10-11T15:25:41.119Z,101649.91
2022-10-11T15:27:43.518Z,101652.97
2022-10-11T15:29:45.531Z,101649.50
2022-10-11T15:31:49.332Z,101650.91
2022-10-11T15:33:51.500Z,101659.22
2022-10-11T15:35:53.494Z,101660.44
2022-10-11T15:37:58.290Z,101661.38
2022-10-11T15:40:00.452Z,101662.91
2022-10-11T15:42:02.546Z,101658.09
2022-10-11T15:44:04.655Z,101657.16
2022-10-11T15:46:07.050Z,101663.44
2022-10-11T15:48:13.815Z,101667.59
2022-10-11T15:50:34.833Z,101670.75
2022-10-11T15:52:36.878Z,101672.69
2022-10-11T15:54:38.869Z,101677.72
2022-10-11T15:56:40.881Z,101674.31
2022-10-11T15:58:43.154Z,101681.34
2022-10-11T16:00:46.233Z,101682.19
2022-10-11T16:02:48.236Z,101684.75
2022-10-11T16:04:50.229Z,101687.38
2022-10-11T16:06:52.261Z,101686.16
2022-10-11T16:08:54.268Z,101694.69
2022-10-11T16:10:57.270Z,101696.41
2022-10-11T16:12:59.289Z,101702.81
2022-10-11T16:15:01.346Z,101700.22
2022-10-11T16:17:05.644Z,101697.63
2022-10-11T16:19:10.494Z,101699.66
2022-10-11T16:21:15.576Z,101701.31
2022-10-11T16:23:17.604Z,101701.50
2022-10-11T16:25:20.063Z,101701.88
2022-10-11T16:27:22.164Z,101709.25
2022-10-11T16:29:25.663Z,101708.88
2022-10-11T16:31:27.676Z,101711.06
2022-10-11T16:33:31.826Z,101709.88
2022-10-11T16:35:33.810Z,101712.31
2022-10-11T16:37:36.487Z,101712.81
2022-10-11T16:39:38.708Z,101715.88
2022-10-11T16:41:40.994Z,101717.19
2022-10-11T16:43:43.017Z,101716.84
2022-10-11T16:45:45.115Z,101719.63
2022-10-11T16:47:47.342Z,101712.56
2022-10-11T16:49:49.351Z,101714.69
2022-10-11T16:51:51.936Z,101720.06
2022-10-11T16:53:53.971Z,101727.84
2022-10-11T16:55:55.983Z,101725.31
2022-10-11T16:57:58.011Z,101716.31
2022-10-11T16:59:59.988Z,101725.91
2022-10-11T17:02:02.078Z,101723.91
2022-10-11T17:04:04.346Z,101715.91
2022-10-11T17:06:07.060Z,101720.00
2022-10-11T17:08:09.434Z,101726.00
2022-10-11T17:10:11.475Z,101723.84
2022-10-11T17:12:14.147Z,101720.19
2022-10-11T17:14:16.181Z,101724.53
2022-10-11T17:16:18.298Z,101726.63
2022-10-11T17:18:20.303Z,101730.53
2022-10-11T17:20:22.398Z,101722.97
2022-10-11T17:22:24.601Z,101721.97
2022-10-11T17:24:26.758Z,101724.53
2022-10-11T17:26:28.742Z,101731.56
2022-10-11T17:28:34.647Z,101726.63
2022-10-11T17:30:36.824Z,101733.13
2022-10-11T17:32:38.886Z,101732.31
2022-10-11T17:34:40.901Z,101733.19
2022-10-11T17:36:43.134Z,101733.28
2022-10-11T17:38:45.272Z,101734.88
2022-10-11T17:40:47.693Z,101730.38
2022-10-11T17:42:49.703Z,101737.56
2022-10-11T17:44:51.784Z,101746.00
2022-10-11T17:46:53.973Z,101745.38
2022-10-11T17:48:56.053Z,101742.72
2022-10-11T17:50:58.046Z,101741.91
2022-10-11T17:53:00.084Z,101737.31
2022-10-11T17:55:02.111Z,101743.97
2022-10-11T17:57:04.203Z,101748.50
2022-10-11T17:59:06.277Z,101741.91
2022-10-11T18:01:11.710Z,101747.25
2022-10-11T18:03:14.012Z,101749.81
2022-10-11T18:05:16.851Z,101751.88
2022-10-11T18:07:18.796Z,101743.75
2022-10-11T18:09:21.311Z,101748.97
2022-10-11T18:11:23.440Z,101747.88
2022-10-11T18:13:25.539Z,101742.09
2022-10-11T18:15:31.174Z,101742.09
2022-10-11T18:17:33.186Z,101750.53
2022-10-11T18:19:35.286Z,101748.38
2022-10-11T18:21:37.954Z,101752.47
2022-10-11T18:23:40.191Z,101757.59
2022-10-11T18:25:42.189Z,101757.41
2022-10-11T18:27:44.212Z,101760.78
2022-10-11T18:29:46.401Z,101752.88
2022-10-11T18:31:48.476Z,101755.63
2022-10-11T18:33:51.137Z,101766.72
2022-10-11T18:36:04.900Z,101764.13
2022-10-11T18:38:07.179Z,101763.69
2022-10-11T18:40:09.856Z,101761.91
2022-10-11T18:42:11.837Z,101772.16
2022-10-11T18:44:15.081Z,101765.91
2022-10-11T18:46:17.732Z,101769.56
2022-10-11T18:48:19.759Z,101767.94
2022-10-11T18:50:21.766Z,101768.69
2022-10-11T18:52:23.772Z,101770.88
2022-10-11T18:54:25.780Z,101769.81
2022-10-11T18:56:28.587Z,101768.25
2022-10-11T18:58:30.791Z,101773.34
2022-10-11T19:00:41.276Z,101782.06
2022-10-11T19:02:43.734Z,101778.50
2022-10-11T19:04:45.849Z,101775.00
2022-10-11T19:06:48.801Z,101780.91
2022-10-11T19:08:53.668Z,101774.03
2022-10-11T19:10:55.696Z,101784.25
2022-10-11T19:12:57.697Z,101785.72
2022-10-11T19:15:01.796Z,101788.28
2022-10-11T19:17:03.851Z,101770.09
2022-10-11T19:19:26.842Z,101776.88
2022-10-11T19:21:48.840Z,101783.75
2022-10-11T19:24:11.234Z,101786.34
2022-10-11T19:26:36.037Z,101777.59
2022-10-11T19:29:04.279Z,101790.00
2022-10-11T19:31:26.975Z,101792.47
2022-10-11T19:33:49.702Z,101794.19
2022-10-11T19:36:13.923Z,101792.00
2022-10-11T19:38:36.362Z,101787.06
2022-10-11T19:41:01.161Z,101797.66
2022-10-11T19:43:23.689Z,101796.84
2022-10-11T19:45:46.020Z,101790.78
2022-10-11T19:48:08.384Z,101792.25
2022-10-11T19:50:30.757Z,101788.38
2022-10-11T19:52:53.175Z,101782.34
2022-10-11T19:55:15.626Z,101781.91
2022-10-11T19:57:37.986Z,101785.78
2022-10-11T20:00:00.338Z,101783.88
2022-10-11T20:02:22.701Z,101789.72
2022-10-11T20:04:52.360Z,101789.78
2022-10-11T20:07:15.317Z,101794.81
2022-10-11T20:09:37.859Z,101792.88
2022-10-11T20:12:00.185Z,101796.25
2022-10-11T20:14:22.717Z,101789.91
2022-10-11T20:16:45.105Z,101795.16
2022-10-11T20:19:07.436Z,101793.78
2022-10-11T20:21:30.319Z,101789.38
2022-10-11T20:23:53.063Z,101788.31
2022-10-11T20:26:23.280Z,101788.31
2022-10-11T20:28:45.710Z,101795.25
2022-10-11T20:31:13.947Z,101791.66
2022-10-11T20:33:36.359Z,101784.78
2022-10-11T20:36:09.172Z,101790.03
2022-10-11T20:38:33.512Z,101790.09
2022-10-11T20:40:56.079Z,101789.91
2022-10-11T20:43:18.546Z,101785.75
2022-10-11T20:45:40.931Z,101793.53
2022-10-11T20:48:03.286Z,101786.94
2022-10-11T20:50:25.693Z,101787.81
2022-10-11T20:52:48.216Z,101787.81
2022-10-11T20:55:10.603Z,101789.50
2022-10-11T20:57:33.201Z,101793.34
2022-10-11T20:59:55.694Z,101792.00
2022-10-11T21:02:19.049Z,101792.31
2022-10-11T21:04:41.581Z,101783.53
2022-10-11T21:07:03.906Z,101787.41
2022-10-11T21:09:26.283Z,101792.13
2022-10-11T21:11:48.612Z,101795.97
2022-10-11T21:14:11.037Z,101791.84
2022-10-11T21:16:33.954Z,101789.09
2022-10-11T21:18:57.442Z,101793.28
2022-10-11T21:21:20.068Z,101797.97
2022-10-11T21:23:42.420Z,101798.28
2022-10-11T21:26:09.400Z,101800.75
2022-10-11T21:28:31.807Z,101789.69
2022-10-11T21:30:54.186Z,101796.63
2022-10-11T21:33:16.517Z,101800.22
2022-10-11T21:35:39.992Z,101798.84
2022-10-11T21:38:02.384Z,101806.34
2022-10-11T21:40:25.412Z,101804.47
2022-10-11T21:42:47.763Z,101798.41
2022-10-11T21:45:10.155Z,101801.47
2022-10-11T21:47:33.017Z,101803.09
2022-10-11T21:49:58.880Z,101809.22
2022-10-11T21:52:21.215Z,101810.31
2022-10-11T21:54:43.560Z,101807.31
2022-10-11T21:57:06.334Z,101805.09
2022-10-11T21:59:28.695Z,101799.91
2022-10-11T22:01:51.134Z,101803.22
2022-10-11T22:04:13.565Z,101798.84
2022-10-11T22:06:36.349Z,101805.19
2022-10-11T22:08:58.698Z,101805.47
2022-10-11T22:11:21.004Z,101805.75
2022-10-11T22:13:43.354Z,101800.81
2022-10-11T22:16:07.576Z,101801.09
2022-10-11T22:18:33.293Z,101801.34
2022-10-11T22:21:06.294Z,101795.81
2022-10-11T22:23:28.627Z,101802.97
2022-10-11T22:25:51.018Z,101806.84
2022-10-11T22:28:13.566Z,101798.28
2022-10-11T22:30:35.922Z,101811.78
2022-10-11T22:32:58.376Z,101806.31
2022-10-11T22:35:20.668Z,101802.47
2022-10-11T22:37:43.243Z,101799.19
2022-10-11T22:40:06.210Z,101801.09
2022-10-11T22:42:30.359Z,101801.09
2022-10-11T22:44:52.861Z,101804.13
2022-10-11T22:47:15.238Z,101807.16
2022-10-11T22:49:37.596Z,101811.28
2022-10-11T22:51:59.937Z,101808.84
2022-10-11T22:54:22.302Z,101808.59
2022-10-11T22:56:44.616Z,101817.97
2022-10-11T22:59:07.298Z,101813.00
2022-10-11T23:01:29.773Z,101812.50
2022-10-11T23:03:52.217Z,101808.34
2022-10-11T23:06:14.628Z,101802.56
2022-10-11T23:08:36.972Z,101809.19
2022-10-11T23:11:08.413Z,101811.41
2022-10-11T23:13:30.820Z,101810.81
2022-10-11T23:15:53.210Z,101812.19
2022-10-11T23:18:16.490Z,101814.94
2022-10-11T23:20:39.545Z,101813.31
2022-10-11T23:23:01.853Z,101808.63
2022-10-11T23:25:24.195Z,101818.28
2022-10-11T23:27:46.526Z,101816.06
2022-10-11T23:30:10.192Z,101805.03
2022-10-11T23:32:32.525Z,101811.91
2022-10-11T23:34:54.877Z,101814.94
2022-10-11T23:37:17.523Z,101817.13
2022-10-11T23:39:39.963Z,101820.41
2022-10-11T23:42:02.501Z,101822.34
2022-10-11T23:44:24.863Z,101820.13
2022-10-11T23:46:47.287Z,101827.56
2022-10-11T23:49:09.623Z,101823.72
2022-10-11T23:51:31.946Z,101831.38
2022-10-11T23:53:54.334Z,101830.31
2022-10-11T23:56:16.671Z,101833.31
2022-10-11T23:58:39.244Z,101831.94
